Webcam

2019/09/15 14:20 EBBR 151420Z 28008KT 230V310 CAVOK 24/05 Q1023 NOSIG

Webcam

--- Refresh now ---